Time;durP1;ratioP1;P1;durP2;ratioP2;P2;SDS_P1;SDS_P2;PMS_P1;PMS_P2;Temp;Humidity;BMP_temperature;BMP_pressure;BME280_temperature;BME280_humidity;BME280_pressure;Samples;Min_cycle;Max_cycle;Signal;HPM_P1;HPM_P2
2022/09/27 00:00:38;;;;;;;21.35;11.93;;;;;;;16.48;83.13;94338.97;5152317;27;20480;-78
2022/09/27 00:03:04;;;;;;;15.15;11.55;;;;;;;16.64;82.61;94359.78;5154328;27;20059;-78
2022/09/27 00:05:29;;;;;;;16.30;10.10;;;;;;;16.38;82.52;94328.69;5153193;27;20090;-78
2022/09/27 00:07:56;;;;;;;12.43;9.88;;;;;;;16.08;82.01;94281.78;5152576;27;20106;-78
2022/09/27 00:10:21;;;;;;;12.85;9.57;;;;;;;16.73;81.92;94368.50;5153119;27;20602;-78
2022/09/27 00:12:47;;;;;;;14.77;9.70;;;;;;;16.65;82.17;94338.03;5132291;27;20091;-78
2022/09/27 00:15:13;;;;;;;13.68;10.18;;;;;;;16.48;81.87;94317.56;5152460;27;20088;-78
2022/09/27 00:17:39;;;;;;;12.95;8.32;;;;;;;16.55;81.09;94341.13;5133377;27;20098;-78
2022/09/27 00:20:06;;;;;;;12.88;9.65;;;;;;;16.29;81.41;94314.63;5134439;27;20462;-78
2022/09/27 00:22:32;;;;;;;14.68;9.90;;;;;;;16.20;81.23;94317.38;5129978;27;20026;-78
2022/09/27 00:24:58;;;;;;;13.80;9.85;;;;;;;16.17;81.68;94320.69;5128584;27;20054;-78
2022/09/27 00:27:25;;;;;;;15.65;9.80;;;;;;;16.35;81.42;94387.44;5133111;27;20443;-78
2022/09/27 00:29:51;;;;;;;13.52;9.77;;;;;;;16.07;81.87;94337.16;5152535;27;20468;-78
2022/09/27 00:32:17;;;;;;;15.77;11.10;;;;;;;15.95;83.05;94363.84;5129515;27;20127;-78
2022/09/27 00:34:43;;;;;;;12.40;9.32;;;;;;;15.34;84.32;94315.31;5136992;27;20037;-78
2022/09/27 00:37:09;;;;;;;14.00;10.32;;;;;;;15.79;85.92;94382.34;5137904;27;20480;-78
2022/09/27 00:39:37;;;;;;;15.00;10.43;;;;;;;15.56;84.95;94327.66;5136538;27;20034;-78
2022/09/27 00:42:02;;;;;;;12.93;10.20;;;;;;;15.45;84.61;94318.41;5130139;27;20038;-78
2022/09/27 00:44:28;;;;;;;17.38;10.45;;;;;;;15.74;85.48;94355.81;5155603;27;20023;-78
2022/09/27 00:47:18;;;;;;;14.43;10.52;;;;;;;15.85;85.15;94364.25;5155384;27;20420;-78
2022/09/27 00:49:46;;;;;;;19.95;11.85;;;;;;;15.80;85.26;94357.19;5136213;27;20079;-78
2022/09/27 00:52:35;;;;;;;17.10;10.82;;;;;;;15.47;84.84;94291.38;5136795;27;20030;-78
2022/09/27 00:55:07;;;;;;;22.38;11.90;;;;;;;15.93;84.92;94338.53;5136577;27;20144;-78
2022/09/27 00:57:34;;;;;;;16.65;10.75;;;;;;;15.84;84.25;94322.56;5137178;27;20034;-78
2022/09/27 01:00:11;;;;;;;19.60;11.10;;;;;;;15.67;84.14;94341.41;5136017;27;20043;-78
2022/09/27 01:02:40;;;;;;;22.77;11.48;;;;;;;15.59;84.61;94294.91;5136530;27;20042;-78
2022/09/27 01:05:09;;;;;;;21.05;9.93;;;;;;;15.70;85.10;94303.34;5102470;27;20487;-79
2022/09/27 01:07:34;;;;;;;17.50;10.60;;;;;;;15.61;84.14;94282.03;5155496;27;20033;-78
2022/09/27 01:10:00;;;;;;;18.33;11.07;;;;;;;15.60;84.00;94285.00;5137040;27;20105;-79
2022/09/27 01:13:05;;;;;;;15.88;10.63;;;;;;;15.92;84.61;94350.34;5136995;27;20022;-78
2022/09/27 01:15:57;;;;;;;16.70;11.40;;;;;;;15.70;86.18;94300.66;5155965;27;20407;-79
2022/09/27 01:18:49;;;;;;;23.38;12.00;;;;;;;16.01;86.14;94335.81;5152848;27;20027;-79
2022/09/27 01:21:32;;;;;;;17.77;11.68;;;;;;;15.95;86.73;94336.31;5118912;27;20030;-79
2022/09/27 01:24:03;;;;;;;18.88;11.77;;;;;;;16.07;86.02;94323.78;5154121;27;20034;-79
2022/09/27 01:26:42;;;;;;;22.88;11.88;;;;;;;15.96;85.94;94314.59;5135241;27;20573;-79
2022/09/27 01:29:21;;;;;;;15.88;10.50;;;;;;;15.66;84.58;94353.97;5153681;27;20113;-79
2022/09/27 01:32:02;;;;;;;17.10;11.02;;;;;;;15.22;85.41;94272.50;5153678;27;20031;-79
2022/09/27 01:34:36;;;;;;;16.50;11.40;;;;;;;15.62;85.93;94317.53;5121048;27;20033;-79
2022/09/27 01:37:27;;;;;;;23.45;11.05;;;;;;;15.73;86.11;94316.81;5153313;27;20066;-79
2022/09/27 01:40:05;;;;;;;17.65;10.80;;;;;;;15.51;85.70;94335.81;5155360;27;20053;-78
2022/09/27 01:42:54;;;;;;;13.68;10.27;;;;;;;15.25;85.75;94293.25;5155742;27;20023;-79
2022/09/27 01:45:20;;;;;;;17.63;11.40;;;;;;;15.66;85.88;94337.16;5136081;27;20117;-78
2022/09/27 01:47:52;;;;;;;17.92;10.75;;;;;;;15.48;85.75;94288.38;5141302;27;20051;-78
2022/09/27 01:50:28;;;;;;;17.90;10.23;;;;;;;15.66;86.83;94321.13;5135649;27;20037;-78
2022/09/27 01:53:01;;;;;;;19.20;10.38;;;;;;;15.42;86.07;94276.28;5154892;27;20062;-78
2022/09/27 01:55:31;;;;;;;15.50;10.73;;;;;;;15.51;86.51;94306.41;5154958;27;20034;-78
2022/09/27 01:58:04;;;;;;;13.20;9.85;;;;;;;15.74;85.39;94341.66;5136458;27;20514;-78
2022/09/27 02:00:30;;;;;;;17.90;9.60;;;;;;;14.85;85.77;94228.75;5147785;27;20082;-78
2022/09/27 02:03:08;;;;;;;14.75;10.80;;;;;;;15.04;85.81;94239.78;5145607;27;20105;-78
2022/09/27 02:05:42;;;;;;;24.08;10.65;;;;;;;15.59;86.99;94297.59;5154449;27;20038;-78
2022/09/27 02:08:35;;;;;;;17.00;10.50;;;;;;;15.28;86.19;94257.84;5140763;27;20027;-78
2022/09/27 02:11:06;;;;;;;12.93;9.98;;;;;;;15.45;85.85;94321.09;5150648;27;20038;-78
2022/09/27 02:13:50;;;;;;;20.85;10.95;;;;;;;15.49;87.04;94307.84;5135700;27;20030;-78
2022/09/27 02:16:32;;;;;;;16.42;9.88;;;;;;;15.56;86.61;94297.47;5153951;27;20106;-78
2022/09/27 02:19:09;;;;;;;15.98;10.32;;;;;;;15.52;85.96;94283.16;5154441;27;20087;-79
2022/09/27 02:21:53;;;;;;;18.75;9.90;;;;;;;15.38;85.43;94249.47;5134327;27;20027;-78
2022/09/27 02:24:23;;;;;;;21.00;10.45;;;;;;;15.56;85.58;94287.56;5135096;27;20062;-78
2022/09/27 02:27:00;;;;;;;15.98;10.90;;;;;;;15.10;86.09;94205.69;5135074;27;20516;-78
2022/09/27 02:29:54;;;;;;;16.67;9.93;;;;;;;15.39;86.65;94250.25;5135670;27;20045;-78
2022/09/27 02:32:19;;;;;;;20.75;11.55;;;;;;;15.01;86.90;94186.25;5134940;27;20033;-78
2022/09/27 02:34:46;;;;;;;17.05;10.25;;;;;;;15.30;87.32;94226.25;5154172;27;20030;-78
2022/09/27 02:37:12;;;;;;;16.95;11.40;;;;;;;15.30;86.68;94230.81;5136312;27;20121;-78
2022/09/27 02:39:38;;;;;;;21.60;11.38;;;;;;;14.83;87.56;94152.78;5136584;27;20080;-78
2022/09/27 02:42:05;;;;;;;17.85;11.13;;;;;;;15.49;87.74;94223.13;5156084;27;20037;-78
2022/09/27 02:44:31;;;;;;;21.27;11.95;;;;;;;15.56;87.31;94219.97;5162666;27;20126;-79
2022/09/27 02:47:20;;;;;;;13.57;11.13;;;;;;;15.43;86.36;94243.91;5139167;27;20033;-78
2022/09/27 02:50:04;;;;;;;23.33;12.00;;;;;;;15.44;87.53;94248.16;5127789;27;20073;-78
2022/09/27 02:52:55;;;;;;;14.07;10.93;;;;;;;15.52;87.30;94267.91;5135074;27;20150;-78
2022/09/27 02:55:43;;;;;;;15.48;11.48;;;;;;;15.51;86.67;94247.63;5144218;27;20085;-78
2022/09/27 02:58:24;;;;;;;20.77;12.35;;;;;;;15.50;87.02;94261.31;5153927;27;20042;-78
2022/09/27 03:00:58;;;;;;;18.05;11.00;;;;;;;15.48;86.88;94268.88;5135089;27;20035;-78
2022/09/27 03:03:52;;;;;;;21.00;11.15;;;;;;;15.19;87.29;94229.63;5134109;27;20031;-78
2022/09/27 03:06:22;;;;;;;18.85;11.93;;;;;;;15.54;86.87;94244.34;5153049;27;20086;-78
2022/09/27 03:08:47;;;;;;;13.57;10.95;;;;;;;15.36;86.14;94192.13;5134806;27;20023;-78
2022/09/27 03:11:13;;;;;;;17.73;11.52;;;;;;;15.58;86.83;94209.72;5134875;27;20036;-78
2022/09/27 03:13:39;;;;;;;14.80;11.27;;;;;;;15.35;87.11;94177.97;5131321;27;20030;-79
2022/09/27 03:16:05;;;;;;;16.63;12.05;;;;;;;15.63;86.13;94207.66;5132145;27;20030;-78
2022/09/27 03:18:31;;;;;;;16.38;10.93;;;;;;;15.54;86.83;94190.91;5134326;27;20419;-78
2022/09/27 03:20:57;;;;;;;14.70;10.15;;;;;;;15.24;86.26;94144.78;5152524;27;20061;-78
2022/09/27 03:23:23;;;;;;;15.75;11.05;;;;;;;15.31;86.16;94139.69;5151497;27;20368;-78
2022/09/27 03:25:48;;;;;;;13.05;11.55;;;;;;;15.35;86.51;94145.91;5152199;27;20043;-78
2022/09/27 03:28:14;;;;;;;12.82;10.18;;;;;;;15.41;85.82;94144.59;5153054;27;20099;-78
2022/09/27 03:30:40;;;;;;;16.90;11.57;;;;;;;15.31;86.19;94137.00;5153929;27;20033;-79
2022/09/27 03:33:08;;;;;;;17.27;11.70;;;;;;;15.31;86.72;94133.56;5135986;27;20448;-79
2022/09/27 03:35:34;;;;;;;13.40;11.07;;;;;;;15.45;85.75;94140.19;5133639;27;20022;-79
2022/09/27 03:37:59;;;;;;;12.40;9.90;;;;;;;15.40;85.18;94151.09;5152682;27;20110;-79
2022/09/27 03:40:24;;;;;;;18.45;10.52;;;;;;;15.66;85.64;94187.47;5134353;27;20070;-79
2022/09/27 03:42:50;;;;;;;17.55;10.77;;;;;;;15.62;85.87;94160.66;5134068;27;20022;-79
2022/09/27 03:45:16;;;;;;;14.82;11.38;;;;;;;15.78;86.24;94190.22;5133307;27;20043;-79
2022/09/27 03:47:42;;;;;;;14.50;11.27;;;;;;;15.08;85.35;94069.03;5153205;27;20102;-79
2022/09/27 03:50:08;;;;;;;12.75;9.50;;;;;;;14.87;84.88;94022.91;5152941;27;20437;-79
2022/09/27 03:52:36;;;;;;;18.38;12.13;;;;;;;15.66;85.54;94145.50;5153059;27;20030;-79
2022/09/27 03:55:01;;;;;;;16.10;10.50;;;;;;;15.69;86.15;94176.94;5133123;27;20039;-79
2022/09/27 03:57:26;;;;;;;16.13;10.73;;;;;;;15.09;85.33;94099.19;5153542;27;20022;-78
2022/09/27 03:59:52;;;;;;;11.98;9.75;;;;;;;15.33;85.30;94158.81;5152343;27;20062;-77
2022/09/27 04:02:17;;;;;;;13.90;10.82;;;;;;;14.77;87.43;94096.13;5131944;27;20019;-77
2022/09/27 04:04:43;;;;;;;13.10;10.70;;;;;;;14.87;86.55;94109.09;5143844;27;20080;-78
2022/09/27 04:07:09;;;;;;;16.80;11.15;;;;;;;14.94;86.19;94122.72;5132814;27;20394;-79
2022/09/27 04:09:36;;;;;;;13.88;11.13;;;;;;;14.86;87.31;94141.44;5143681;27;20052;-80
2022/09/27 04:12:03;;;;;;;17.67;12.48;;;;;;;15.11;87.43;94143.13;5107939;27;20401;-78
2022/09/27 04:14:28;;;;;;;17.17;12.50;;;;;;;15.38;87.21;94196.03;5101583;27;20372;-79
2022/09/27 04:16:54;;;;;;;20.00;13.57;;;;;;;14.90;88.23;94129.78;5119136;27;20153;-79
2022/09/27 04:19:20;;;;;;;19.52;12.55;;;;;;;14.93;87.96;94118.47;5134288;27;20034;-79
2022/09/27 04:21:46;;;;;;;18.65;13.20;;;;;;;15.49;87.47;94171.56;5114026;27;20296;-80
2022/09/27 04:24:12;;;;;;;19.05;13.43;;;;;;;15.13;87.02;94103.53;5109630;27;20058;-79
2022/09/27 04:26:38;;;;;;;19.58;14.38;;;;;;;15.37;86.75;94126.91;5110386;27;20039;-80
2022/09/27 04:29:04;;;;;;;17.00;13.13;;;;;;;15.45;85.86;94134.84;5122381;27;20031;-79
2022/09/27 04:31:30;;;;;;;18.33;13.55;;;;;;;15.11;85.38;94113.75;5105079;27;20543;-79
2022/09/27 04:33:56;;;;;;;22.50;15.25;;;;;;;15.26;86.15;94155.88;5096440;27;20058;-79
2022/09/27 04:36:26;;;;;;;23.15;15.77;;;;;;;14.85;87.20;94137.22;5135993;27;20481;-79
2022/09/27 04:38:53;;;;;;;20.23;16.20;;;;;;;15.26;87.11;94171.91;5134686;27;20050;-79
2022/09/27 04:41:20;;;;;;;24.30;17.83;;;;;;;15.29;87.58;94165.94;5144609;27;20107;-79
2022/09/27 04:43:46;;;;;;;25.70;18.30;;;;;;;14.32;88.53;94020.47;5115403;27;20428;-77
2022/09/27 04:46:12;;;;;;;25.27;19.58;;;;;;;15.27;87.33;94178.03;5130209;27;20032;-78
2022/09/27 04:48:38;;;;;;;25.95;20.52;;;;;;;15.10;88.53;94154.16;5119865;27;20102;-77
2022/09/27 04:51:04;;;;;;;26.60;20.95;;;;;;;15.13;87.69;94146.25;5143541;27;20648;-77
2022/09/27 04:53:30;;;;;;;23.63;17.63;;;;;;;15.37;88.19;94183.00;5139170;27;20031;-78
2022/09/27 04:55:56;;;;;;;25.38;17.83;;;;;;;15.13;87.31;94146.25;5114251;27;20046;-78
2022/09/27 04:58:22;;;;;;;18.40;15.40;;;;;;;15.18;86.76;94151.41;5138246;27;20114;-77
2022/09/27 05:00:51;;;;;;;19.25;14.02;;;;;;;14.40;87.31;94062.34;5128777;27;20424;-79
2022/09/27 05:03:18;;;;;;;21.17;14.57;;;;;;;14.98;88.23;94142.28;5129475;27;20031;-79
2022/09/27 05:05:43;;;;;;;18.48;14.80;;;;;;;15.27;87.90;94197.53;5106195;27;20050;-79
2022/09/27 05:08:09;;;;;;;23.05;15.52;;;;;;;15.01;87.76;94143.53;5125867;27;20083;-78
2022/09/27 05:10:35;;;;;;;23.80;16.48;;;;;;;15.13;86.85;94130.25;5107450;27;20429;-79
2022/09/27 05:13:01;;;;;;;22.05;16.83;;;;;;;15.27;86.74;94136.09;5105110;27;20424;-82
2022/09/27 05:15:26;;;;;;;29.05;17.42;;;;;;;15.48;86.71;94132.63;5137152;27;20041;-84
2022/09/27 05:17:52;;;;;;;24.85;16.98;;;;;;;15.74;86.64;94149.97;5107725;27;20023;-78
2022/09/27 05:20:18;;;;;;;23.00;15.05;;;;;;;15.83;86.56;94163.25;5125559;27;20066;-79
2022/09/27 05:22:44;;;;;;;24.17;15.95;;;;;;;15.56;87.11;94135.25;5105158;27;20100;-78
2022/09/27 05:25:10;;;;;;;22.42;16.13;;;;;;;14.93;86.82;94030.38;5137435;27;20157;-81
2022/09/27 05:27:35;;;;;;;24.98;15.55;;;;;;;15.20;87.23;94111.00;5126949;27;20027;-80
2022/09/27 05:30:00;;;;;;;23.40;15.77;;;;;;;15.37;87.54;94119.66;5113494;27;20261;-79
2022/09/27 05:32:28;;;;;;;26.35;15.63;;;;;;;15.24;86.20;94075.31;5111152;27;20030;-81
2022/09/27 05:34:53;;;;;;;26.83;15.02;;;;;;;14.08;86.25;93877.91;5114141;27;20038;-83
2022/09/27 05:37:19;;;;;;;20.45;15.38;;;;;;;15.77;86.33;94140.53;5112105;27;20915;-81
2022/09/27 05:39:45;;;;;;;22.95;14.68;;;;;;;15.68;86.57;94118.44;5110813;27;20557;-80
2022/09/27 05:42:14;;;;;;;21.48;14.50;;;;;;;16.00;86.39;94159.63;5130431;27;20050;-81
2022/09/27 05:44:39;;;;;;;19.10;13.55;;;;;;;15.64;86.04;94104.19;5107284;27;20057;-80
2022/09/27 05:47:05;;;;;;;19.80;14.10;;;;;;;16.22;85.12;94180.63;5133139;27;20039;-81
2022/09/27 05:49:31;;;;;;;18.70;14.13;;;;;;;15.80;85.95;94131.84;5108678;27;20027;-80
2022/09/27 05:51:57;;;;;;;25.55;15.98;;;;;;;16.13;86.06;94175.34;5135519;27;20069;-80
2022/09/27 05:54:23;;;;;;;28.48;14.27;;;;;;;16.19;84.63;94165.22;5113078;27;20066;-81
2022/09/27 05:56:48;;;;;;;23.02;14.25;;;;;;;15.67;84.97;94090.94;5114876;27;20030;-80
2022/09/27 05:59:14;;;;;;;24.92;15.55;;;;;;;15.94;84.98;94143.03;5131135;27;20419;-82
2022/09/27 06:01:40;;;;;;;27.42;14.35;;;;;;;15.72;84.96;94106.75;5108507;27;20041;-80
2022/09/27 06:04:14;;;;;;;21.52;15.43;;;;;;;16.03;85.03;94149.03;5101616;27;20549;-83
2022/09/27 06:06:39;;;;;;;21.65;15.43;;;;;;;16.06;84.26;94148.38;5111854;27;20122;-86
2022/09/27 06:09:09;;;;;;;20.08;14.45;;;;;;;16.23;84.96;94163.47;5124203;27;20027;-82
2022/09/27 06:11:34;;;;;;;20.77;14.93;;;;;;;15.69;85.16;94090.63;5115928;27;20040;-80
2022/09/27 06:14:00;;;;;;;30.90;18.17;;;;;;;15.82;85.47;94118.91;5094150;27;20519;-81
2022/09/27 06:16:25;;;;;;;27.60;18.92;;;;;;;16.25;85.60;94169.22;5102186;27;20039;-81
2022/09/27 06:18:51;;;;;;;29.80;19.25;;;;;;;16.40;85.51;94183.88;5113101;27;20073;-81
2022/09/27 06:21:16;;;;;;;22.48;16.65;;;;;;;16.13;85.26;94129.88;5111001;27;20137;-82
2022/09/27 06:23:42;;;;;;;21.23;15.15;;;;;;;16.44;84.72;94158.78;5139666;27;20033;-82
2022/09/27 06:26:09;;;;;;;24.70;16.73;;;;;;;16.03;84.59;94089.41;5110873;27;20577;-82
2022/09/27 06:28:35;;;;;;;23.38;18.63;;;;;;;15.98;85.13;94090.44;5126387;27;20274;-81
2022/09/27 06:31:00;;;;;;;44.33;28.90;;;;;;;16.12;85.59;94108.81;5106091;27;20031;-80
2022/09/27 06:33:29;;;;;;;40.53;29.38;;;;;;;16.33;85.74;94170.25;5107460;27;20031;-81
2022/09/27 06:35:54;;;;;;;39.35;29.10;;;;;;;16.03;85.57;94095.56;5129763;27;20038;-82
2022/09/27 06:38:20;;;;;;;38.78;28.85;;;;;;;16.11;85.87;94100.00;5106167;27;20395;-82
2022/09/27 06:40:47;;;;;;;35.72;24.42;;;;;;;16.15;85.37;94100.94;5112102;27;20096;-81
2022/09/27 06:43:18;;;;;;;33.03;22.67;;;;;;;16.22;84.95;94100.38;5110661;27;20123;-81
2022/09/27 06:45:44;;;;;;;31.55;21.95;;;;;;;16.40;84.46;94125.00;5143129;27;20562;-80
2022/09/27 06:48:11;;;;;;;30.17;20.52;;;;;;;16.70;84.20;94163.06;5137735;27;20057;-80
2022/09/27 06:50:39;;;;;;;29.55;21.30;;;;;;;16.72;84.12;94177.66;5115112;27;20070;-79
2022/09/27 06:53:07;;;;;;;31.95;24.27;;;;;;;16.67;84.65;94182.44;5120639;27;20054;-82
2022/09/27 06:55:34;;;;;;;31.60;22.92;;;;;;;15.76;84.16;94048.88;5140219;27;20034;-83
2022/09/27 07:00:48;;;;;;;29.38;20.75;;;;;;;16.44;84.58;94139.25;5126667;27;20220;-83
2022/09/27 07:03:14;;;;;;;28.75;20.67;;;;;;;15.77;84.58;94055.00;5110169;27;20405;-79
2022/09/27 07:05:41;;;;;;;27.52;20.70;;;;;;;16.42;84.83;94149.50;5109279;27;20175;-81
2022/09/27 07:08:10;;;;;;;24.70;19.23;;;;;;;16.56;85.24;94190.09;5100284;27;20474;-82
2022/09/27 07:10:38;;;;;;;24.35;18.23;;;;;;;16.53;84.68;94172.84;5104815;27;20037;-81
2022/09/27 07:13:08;;;;;;;26.58;17.55;;;;;;;16.53;85.21;94174.72;5117700;27;20118;-78
2022/09/27 07:15:38;;;;;;;33.05;19.90;;;;;;;16.38;85.42;94146.75;5092849;27;20045;-77
2022/09/27 07:18:04;;;;;;;30.02;17.80;;;;;;;16.36;85.12;94153.53;5124223;27;20146;-78
2022/09/27 07:20:31;;;;;;;23.83;18.23;;;;;;;16.16;85.22;94118.53;5123376;27;20081;-79
2022/09/27 07:22:58;;;;;;;23.13;15.70;;;;;;;16.56;84.97;94177.50;5096820;27;20031;-78
2022/09/27 07:25:24;;;;;;;21.98;17.02;;;;;;;16.08;85.91;94107.94;5100508;27;20063;-78
2022/09/27 07:27:51;;;;;;;21.20;15.77;;;;;;;16.43;85.50;94145.72;5105914;27;20035;-78
2022/09/27 07:30:17;;;;;;;21.73;16.23;;;;;;;16.52;85.18;94149.09;5127232;27;20042;-78
2022/09/27 07:32:43;;;;;;;30.92;19.25;;;;;;;16.56;86.02;94182.84;5134396;27;20484;-78
2022/09/27 07:35:09;;;;;;;33.50;19.90;;;;;;;16.35;86.77;94160.78;5133677;27;20038;-78
2022/09/27 07:37:36;;;;;;;54.08;33.25;;;;;;;16.41;87.82;94185.41;5108023;27;20425;-78
2022/09/27 07:40:08;;;;;;;33.13;21.58;;;;;;;16.40;87.08;94183.88;5107568;27;20145;-78
2022/09/27 07:42:42;;;;;;;32.75;20.50;;;;;;;16.34;88.26;94164.56;5132948;27;20415;-78
2022/09/27 07:45:10;;;;;;;30.67;19.30;;;;;;;16.32;89.03;94192.78;5135614;27;20488;-78
2022/09/27 07:47:40;;;;;;;25.42;18.70;;;;;;;16.30;88.87;94190.44;5103616;27;20034;-78
2022/09/27 07:50:09;;;;;;;33.83;20.45;;;;;;;16.45;89.07;94197.81;5116116;27;20031;-80
2022/09/27 08:30:02;;;;;;;37.30;26.10;;;;;;;15.40;97.83;94166.31;5112212;27;20565;-79
2022/09/27 08:32:29;;;;;;;34.00;24.75;;;;;;;15.51;98.04;94170.13;5107891;27;20485;-80
2022/09/27 08:34:55;;;;;;;40.20;27.85;;;;;;;15.78;97.50;94160.81;5097415;27;20091;-80
2022/09/27 08:37:21;;;;;;;36.85;25.20;;;;;;;16.05;96.59;94156.72;5093662;27;20070;-79
2022/09/27 08:39:46;;;;;;;36.13;26.23;;;;;;;15.90;95.77;94102.00;5090854;27;20024;-80
2022/09/27 08:42:33;;;;;;;34.63;26.15;;;;;;;16.42;94.96;94142.28;5090253;27;20409;-81
2022/09/27 08:45:11;;;;;;;35.08;24.95;;;;;;;16.55;93.87;94135.03;5094890;28;20465;-83
2022/09/27 08:47:49;;;;;;;32.72;24.67;;;;;;;16.79;93.30;94139.59;5100282;27;20027;-83
2022/09/27 08:50:28;;;;;;;34.08;23.67;;;;;;;17.00;93.04;94136.78;5083871;27;20035;-81
2022/09/27 08:53:20;;;;;;;28.92;21.02;;;;;;;17.09;92.30;94150.84;5089424;27;20101;-81
2022/09/27 08:55:49;;;;;;;25.83;19.17;;;;;;;17.23;91.34;94135.94;5091904;28;20039;-81
2022/09/27 08:58:27;;;;;;;25.02;17.95;;;;;;;17.26;89.80;94147.88;5112801;27;20027;-80
2022/09/27 09:00:54;;;;;;;23.88;17.48;;;;;;;17.26;89.99;94131.78;5102141;27;20042;-80
2022/09/27 09:03:25;;;;;;;30.70;19.73;;;;;;;17.37;90.78;94143.59;5114558;27;20326;-80
2022/09/27 09:06:02;;;;;;;28.75;19.50;;;;;;;17.08;90.57;94068.91;5111241;27;20035;-81
2022/09/27 09:08:49;;;;;;;22.58;17.88;;;;;;;17.25;88.65;94098.84;5092298;27;20039;-81
2022/09/27 09:14:38;;;;;;;24.23;18.20;;;;;;;17.74;88.70;94133.53;5119446;27;20105;-80
2022/09/27 09:17:27;;;;;;;20.23;16.23;;;;;;;17.65;87.67;94112.22;5102541;27;20058;-80
2022/09/27 09:20:25;;;;;;;29.67;16.27;;;;;;;18.12;87.31;94127.59;5090900;27;20031;-81
2022/09/27 09:23:37;;;;;;;20.85;15.02;;;;;;;18.16;85.98;94125.00;5096997;27;20627;-81
2022/09/27 09:26:15;;;;;;;21.10;15.98;;;;;;;18.00;84.55;94131.13;5117624;27;20123;-80
2022/09/27 09:28:53;;;;;;;20.55;14.73;;;;;;;17.80;84.87;94069.69;5101889;28;20044;-81
2022/09/27 09:31:56;;;;;;;21.63;16.65;;;;;;;18.02;84.99;94128.09;5091642;27;20027;-79
2022/09/27 09:34:31;;;;;;;22.88;15.38;;;;;;;17.90;85.11;94071.84;5110739;27;20079;-83
2022/09/27 09:37:11;;;;;;;23.35;17.48;;;;;;;18.28;84.37;94090.81;5094746;27;20038;-78
2022/09/27 09:39:50;;;;;;;21.88;15.82;;;;;;;18.17;85.77;94062.91;5084411;28;20465;-78
2022/09/27 09:42:25;;;;;;;25.75;16.42;;;;;;;18.76;84.57;94115.72;5088034;28;20036;-78
2022/09/27 09:45:03;;;;;;;20.15;15.70;;;;;;;18.57;84.64;94088.78;5106260;27;20546;-78
2022/09/27 09:47:43;;;;;;;20.08;15.10;;;;;;;18.50;83.00;94076.75;5108070;27;20553;-79
2022/09/27 09:50:26;;;;;;;26.13;15.98;;;;;;;18.76;83.00;94086.94;5096856;27;20122;-83
2022/09/27 09:53:13;;;;;;;22.48;16.15;;;;;;;18.58;82.79;94036.66;5118737;27;20059;-82
2022/09/27 09:55:41;;;;;;;22.38;15.20;;;;;;;18.56;82.52;94030.81;5105557;27;20036;-79
2022/09/27 09:58:27;;;;;;;21.25;14.20;;;;;;;19.26;81.23;94137.13;5090784;28;20118;-79
2022/09/27 10:00:59;;;;;;;17.80;13.13;;;;;;;18.39;80.90;94002.44;5110243;27;20065;-78
2022/09/27 10:03:25;;;;;;;28.17;13.82;;;;;;;18.70;81.46;94058.78;5073092;28;20160;-79
2022/09/27 10:05:50;;;;;;;23.60;15.30;;;;;;;19.02;81.13;94107.03;5102215;27;20031;-78
2022/09/27 10:08:21;;;;;;;18.95;14.60;;;;;;;18.93;82.29;94109.13;5083125;28;20461;-78
2022/09/27 10:10:47;;;;;;;17.52;13.65;;;;;;;19.10;81.70;94109.53;5081194;28;20028;-79
2022/09/27 10:13:23;;;;;;;14.60;13.02;;;;;;;18.96;81.65;94111.13;5108842;27;20050;-80
2022/09/27 10:16:07;;;;;;;18.83;13.60;;;;;;;18.42;81.80;94058.13;5066493;28;20024;-83
2022/09/27 10:18:36;;;;;;;20.77;14.02;;;;;;;18.07;82.77;94042.78;5090653;28;20035;-82
2022/09/27 10:21:10;;;;;;;21.85;14.15;;;;;;;18.70;83.99;94092.91;5092938;28;20031;-80
2022/09/27 10:24:09;;;;;;;20.27;14.07;;;;;;;18.90;83.27;94102.59;5105436;27;20035;-78
2022/09/27 10:26:37;;;;;;;17.75;13.32;;;;;;;19.00;84.37;94039.44;5074505;27;20028;-79
2022/09/27 10:29:15;;;;;;;27.83;16.60;;;;;;;19.69;82.91;94078.03;5070831;27;20572;-78
2022/09/27 10:31:46;;;;;;;24.25;16.40;;;;;;;19.64;84.45;94066.44;5076196;28;20096;-80
2022/09/27 10:34:37;;;;;;;19.38;12.63;;;;;;;19.92;80.27;94076.91;5078508;28;20028;-82
2022/09/27 10:37:12;;;;;;;22.40;12.15;;;;;;;20.17;80.02;94082.72;5079619;28;20039;-79
2022/09/27 10:39:40;;;;;;;19.75;11.77;;;;;;;19.89;78.50;94037.28;5078273;28;20034;-78
2022/09/27 10:42:35;;;;;;;23.55;11.52;;;;;;;20.13;77.07;94075.75;5075969;28;20475;-79
2022/09/27 10:45:39;;;;;;;16.52;11.45;;;;;;;20.16;76.45;94078.47;5093264;28;20124;-78
2022/09/27 10:48:04;;;;;;;19.70;12.07;;;;;;;19.70;76.43;93999.69;5092172;27;20602;-77
2022/09/27 10:50:32;;;;;;;13.77;10.15;;;;;;;19.93;76.56;94075.78;5084230;28;20055;-77
2022/09/27 10:53:13;;;;;;;13.85;10.55;;;;;;;20.09;77.74;94059.50;5077885;28;20097;-79
2022/09/27 10:55:39;;;;;;;;;;;;;;;20.65;79.42;94066.94;5097638;27;20088;-79
2022/09/27 10:58:06;;;;;;;16.20;11.85;;;;;;;20.97;79.11;94045.81;5091461;28;19924;-78
2022/09/27 11:00:35;;;;;;;30.20;11.98;;;;;;;21.09;78.17;94005.13;5081869;27;20088;-77
2022/09/27 11:03:12;;;;;;;22.20;11.30;;;;;;;21.86;75.02;94037.56;5077583;27;20508;-78
2022/09/27 11:05:38;;;;;;;14.93;12.13;;;;;;;22.41;78.87;94017.97;5092644;27;20028;-78
2022/09/27 11:08:22;;;;;;;16.50;10.90;;;;;;;23.03;74.32;94038.44;5071368;28;20505;-77
2022/09/27 11:11:15;;;;;;;18.90;10.18;;;;;;;23.51;70.42;94038.25;5073120;28;20065;-77
2022/09/27 11:13:57;;;;;;;18.88;10.05;;;;;;;23.49;67.12;94040.56;5077408;27;20405;-80
2022/09/27 11:16:33;;;;;;;17.55;8.57;;;;;;;23.53;64.77;94045.97;5095534;27;20601;-82
2022/09/27 11:19:39;;;;;;;13.90;9.13;;;;;;;22.98;66.30;93960.38;5101700;27;20070;-79
2022/09/27 11:22:26;;;;;;;20.30;9.02;;;;;;;23.47;64.05;94024.69;5076992;27;20130;-78
2022/09/27 11:25:07;;;;;;;9.82;6.80;;;;;;;23.62;63.42;94017.41;5086418;28;20432;-78
2022/09/27 11:27:47;;;;;;;10.48;7.35;;;;;;;23.85;62.06;94022.47;5095787;27;20112;-78
2022/09/27 11:30:16;;;;;;;12.18;7.63;;;;;;;23.78;60.09;94011.63;5055407;28;20044;-79
2022/09/27 11:32:43;;;;;;;12.50;7.15;;;;;;;23.91;64.60;94022.84;5062274;28;20453;-80
2022/09/27 11:35:15;;;;;;;12.40;6.72;;;;;;;24.07;61.00;94009.72;5054465;28;20056;-80
2022/09/27 11:37:46;;;;;;;9.52;6.82;;;;;;;24.23;59.88;94012.84;5057352;28;20051;-79
2022/09/27 11:40:46;;;;;;;14.50;6.18;;;;;;;23.65;59.38;93948.22;5056937;28;20032;-78
2022/09/27 11:43:49;;;;;;;13.05;7.10;;;;;;;24.46;59.27;93994.25;5043605;28;20760;-79
2022/09/27 11:46:26;;;;;;;6.93;6.00;;;;;;;24.70;56.91;93973.66;5053985;28;20438;-78
2022/09/27 11:49:33;;;;;;;7.75;6.40;;;;;;;24.71;56.98;93967.09;5055955;28;20070;-80
2022/09/27 11:52:08;;;;;;;12.93;7.65;;;;;;;24.88;56.34;93965.47;5022551;28;20416;-78
2022/09/27 11:54:46;;;;;;;12.10;6.43;;;;;;;24.35;57.54;93965.59;5050536;28;20036;-79
2022/09/27 11:57:45;;;;;;;11.05;4.75;;;;;;;24.43;56.73;93969.84;5050001;28;20048;-78
2022/09/27 12:00:20;;;;;;;10.40;5.35;;;;;;;24.26;58.55;93973.38;5046030;28;20157;-78
2022/09/27 12:03:01;;;;;;;8.45;5.43;;;;;;;24.71;57.28;93956.25;5048863;28;20060;-78
2022/09/27 12:05:50;;;;;;;12.57;6.20;;;;;;;24.33;56.47;93959.81;5052782;28;20111;-81
2022/09/27 12:08:54;;;;;;;8.88;5.40;;;;;;;24.57;56.39;93954.31;5049580;28;20721;-82
2022/09/27 12:11:59;;;;;;;10.20;5.68;;;;;;;24.75;55.19;93920.97;5056258;28;20051;-83
2022/09/27 12:14:34;;;;;;;4.80;4.40;;;;;;;25.20;54.84;93955.28;5047934;28;20397;-78
2022/09/27 12:17:04;;;;;;;9.02;5.22;;;;;;;25.32;54.60;93949.41;5055312;28;20044;-80
2022/09/27 12:19:38;;;;;;;11.87;5.53;;;;;;;25.04;55.34;93924.34;5054629;28;20048;-80
2022/09/27 12:22:10;;;;;;;8.50;4.78;;;;;;;25.10;53.83;93928.22;5049578;28;20170;-77
2022/09/27 12:24:37;;;;;;;6.50;4.40;;;;;;;25.16;54.45;93921.97;5045258;28;20494;-78
2022/09/27 12:27:15;;;;;;;10.93;5.60;;;;;;;25.09;55.83;93889.47;5053751;28;20416;-77